createdAt,value
2022-08-27T00:05:49.030Z,60
2022-08-27T00:25:48.976Z,60
2022-08-27T00:35:48.922Z,61
2022-08-27T00:45:48.975Z,61
2022-08-27T00:55:48.925Z,62
2022-08-27T01:05:48.860Z,62
2022-08-27T01:15:48.851Z,62
2022-08-27T01:25:48.867Z,63
2022-08-27T01:35:48.809Z,63
2022-08-27T01:45:48.786Z,64
2022-08-27T01:55:48.800Z,64
2022-08-27T02:05:48.749Z,64
2022-08-27T02:15:48.756Z,64
2022-08-27T02:25:48.727Z,65
2022-08-27T02:35:48.695Z,65
2022-08-27T02:45:48.654Z,65
2022-08-27T02:55:48.673Z,66
2022-08-27T03:05:48.618Z,66
2022-08-27T03:15:48.620Z,66
2022-08-27T03:25:48.601Z,66
2022-08-27T03:35:51.679Z,67
2022-08-27T03:46:01.885Z,67
2022-08-27T03:55:48.544Z,67
2022-08-27T04:05:48.482Z,67
2022-08-27T04:15:48.512Z,67
2022-08-27T04:25:48.486Z,68
2022-08-27T04:45:48.453Z,68
2022-08-27T04:55:48.418Z,68
2022-08-27T05:05:48.372Z,69
2022-08-27T05:15:48.414Z,69
2022-08-27T05:25:48.362Z,69
2022-08-27T05:35:48.304Z,69
2022-08-27T05:45:48.332Z,69
2022-08-27T05:55:48.342Z,69
2022-08-27T06:05:48.281Z,69
2022-08-27T06:15:48.286Z,69
2022-08-27T06:25:48.286Z,69
2022-08-27T06:35:48.184Z,68
2022-08-27T06:55:48.169Z,68
2022-08-27T07:05:48.124Z,68
2022-08-27T07:15:48.279Z,67
2022-08-27T07:25:48.109Z,67
2022-08-27T07:35:48.052Z,67
2022-08-27T07:45:48.143Z,66
2022-08-27T07:55:48.052Z,66
2022-08-27T08:05:47.991Z,65
2022-08-27T08:15:48.000Z,65
2022-08-27T08:25:47.989Z,64
2022-08-27T08:35:47.924Z,63
2022-08-27T08:45:48.047Z,62
2022-08-27T08:55:47.917Z,62
2022-08-27T09:05:47.865Z,61
2022-08-27T09:15:47.872Z,60
2022-08-27T09:25:47.822Z,60
2022-08-27T09:35:47.793Z,59
2022-08-27T09:45:47.852Z,58
2022-08-27T09:55:47.749Z,57
2022-08-27T10:05:47.728Z,55
2022-08-27T10:15:49.561Z,54
2022-08-27T10:25:47.702Z,53
2022-08-27T10:35:54.328Z,52
2022-08-27T10:45:47.822Z,51
2022-08-27T10:55:47.617Z,51
2022-08-27T11:05:47.597Z,50
2022-08-27T11:15:47.604Z,49
2022-08-27T11:25:47.559Z,47
2022-08-27T11:35:47.539Z,46
2022-08-27T11:45:48.446Z,45
2022-08-27T11:55:47.492Z,45
2022-08-27T12:05:47.465Z,44
2022-08-27T12:15:47.471Z,44
2022-08-27T12:25:47.424Z,43
2022-08-27T12:35:47.410Z,42
2022-08-27T12:45:47.427Z,41
2022-08-27T12:55:47.359Z,41
2022-08-27T13:05:47.341Z,40
2022-08-27T13:15:47.457Z,39
2022-08-27T13:25:47.321Z,39
2022-08-27T13:35:47.292Z,39
2022-08-27T13:45:47.300Z,38
2022-08-27T13:55:47.281Z,38
2022-08-27T14:05:47.224Z,38
2022-08-27T14:15:47.255Z,38
2022-08-27T14:25:47.218Z,38
2022-08-27T14:35:47.156Z,38
2022-08-27T14:45:47.145Z,38
2022-08-27T14:55:51.552Z,39
2022-08-27T15:05:47.097Z,39
2022-08-27T15:15:47.150Z,39
2022-08-27T15:25:47.100Z,40
2022-08-27T15:35:47.029Z,40
2022-08-27T15:45:47.015Z,41
2022-08-27T15:55:47.029Z,41
2022-08-27T16:05:46.983Z,42
2022-08-27T16:15:46.988Z,42
2022-08-27T16:25:46.965Z,43
2022-08-27T16:35:46.904Z,43
2022-08-27T16:45:46.877Z,44
2022-08-27T16:55:46.896Z,45
2022-08-27T17:05:46.834Z,46
2022-08-27T17:15:50.855Z,47
2022-08-27T17:25:46.823Z,48
2022-08-27T17:35:46.945Z,48
2022-08-27T17:45:46.783Z,49
2022-08-27T17:55:46.760Z,49
2022-08-27T18:05:46.700Z,50
2022-08-27T18:15:46.673Z,51
2022-08-27T18:25:46.694Z,51
2022-08-27T18:35:46.638Z,51
2022-08-27T18:45:46.694Z,52
2022-08-27T18:55:46.624Z,52
2022-08-27T19:05:46.571Z,52
2022-08-27T19:15:46.598Z,53
2022-08-27T19:25:46.556Z,53
2022-08-27T19:35:46.510Z,53
2022-08-27T19:45:46.580Z,53
2022-08-27T19:55:46.495Z,54
2022-08-27T20:05:46.438Z,54
2022-08-27T20:15:46.444Z,54
2022-08-27T20:25:46.423Z,55
2022-08-27T20:35:46.363Z,56
2022-08-27T20:45:46.460Z,56
2022-08-27T20:55:46.385Z,57
2022-08-27T21:05:46.300Z,57
2022-08-27T21:15:46.314Z,57
2022-08-27T21:25:46.296Z,58
2022-08-27T21:35:46.237Z,58
2022-08-27T21:45:46.254Z,59
2022-08-27T21:55:46.229Z,59
2022-08-27T22:05:46.181Z,60
2022-08-27T22:15:46.238Z,60
2022-08-27T22:25:46.171Z,61
2022-08-27T22:35:46.108Z,61
2022-08-27T22:45:46.130Z,61
2022-08-27T22:55:50.102Z,62
2022-08-27T23:05:46.105Z,62
2022-08-27T23:15:46.146Z,62
2022-08-27T23:25:46.007Z,63
2022-08-27T23:35:45.981Z,63
2022-08-27T23:45:46.007Z,63
2022-08-27T23:55:45.952Z,64
